sensor_id;sensor_type;location;lat;lon;timestamp;temperature;humidity
68217;DHT22;55037;52.354;4.992;2022-09-12T00:00:21;17.30;85.90
68217;DHT22;55037;52.354;4.992;2022-09-12T00:02:52;17.30;85.90
68217;DHT22;55037;52.354;4.992;2022-09-12T00:05:20;17.30;86.10
68217;DHT22;55037;52.354;4.992;2022-09-12T00:07:48;17.20;86.30
68217;DHT22;55037;52.354;4.992;2022-09-12T00:10:16;17.20;86.30
68217;DHT22;55037;52.354;4.992;2022-09-12T00:12:43;17.20;86.40
68217;DHT22;55037;52.354;4.992;2022-09-12T00:15:10;17.20;86.40
68217;DHT22;55037;52.354;4.992;2022-09-12T00:17:38;17.10;85.50
68217;DHT22;55037;52.354;4.992;2022-09-12T00:20:07;17.00;86.20
68217;DHT22;55037;52.354;4.992;2022-09-12T00:22:35;17.10;86.20
68217;DHT22;55037;52.354;4.992;2022-09-12T00:25:03;17.00;86.10
68217;DHT22;55037;52.354;4.992;2022-09-12T00:27:31;16.90;86.20
68217;DHT22;55037;52.354;4.992;2022-09-12T00:29:58;17.00;86.40
68217;DHT22;55037;52.354;4.992;2022-09-12T00:32:25;16.90;86.60
68217;DHT22;55037;52.354;4.992;2022-09-12T00:34:52;16.90;86.80
68217;DHT22;55037;52.354;4.992;2022-09-12T00:37:20;16.90;87.00
68217;DHT22;55037;52.354;4.992;2022-09-12T00:39:47;16.90;87.00
68217;DHT22;55037;52.354;4.992;2022-09-12T00:42:14;16.80;87.10
68217;DHT22;55037;52.354;4.992;2022-09-12T00:44:44;16.90;87.40
68217;DHT22;55037;52.354;4.992;2022-09-12T00:47:21;16.80;87.50
68217;DHT22;55037;52.354;4.992;2022-09-12T00:50:07;16.80;87.60
68217;DHT22;55037;52.354;4.992;2022-09-12T00:53:02;16.80;87.50
68217;DHT22;55037;52.354;4.992;2022-09-12T00:55:40;16.80;87.60
68217;DHT22;55037;52.354;4.992;2022-09-12T01:00:41;16.80;87.60
68217;DHT22;55037;52.354;4.992;2022-09-12T01:03:11;16.80;87.50
68217;DHT22;55037;52.354;4.992;2022-09-12T01:05:50;16.70;87.40
68217;DHT22;55037;52.354;4.992;2022-09-12T01:08:19;16.70;87.50
68217;DHT22;55037;52.354;4.992;2022-09-12T01:10:47;16.70;87.50
68217;DHT22;55037;52.354;4.992;2022-09-12T01:13:15;16.60;87.50
68217;DHT22;55037;52.354;4.992;2022-09-12T01:15:42;16.60;87.70
68217;DHT22;55037;52.354;4.992;2022-09-12T01:21:08;16.60;87.80
68217;DHT22;55037;52.354;4.992;2022-09-12T01:32:12;16.50;87.90
68217;DHT22;55037;52.354;4.992;2022-09-12T01:34:53;16.50;88.00
68217;DHT22;55037;52.354;4.992;2022-09-12T01:43:36;16.50;88.20
68217;DHT22;55037;52.354;4.992;2022-09-12T01:46:15;16.50;88.10
68217;DHT22;55037;52.354;4.992;2022-09-12T01:48:45;16.50;88.20
68217;DHT22;55037;52.354;4.992;2022-09-12T01:51:37;16.50;88.40
68217;DHT22;55037;52.354;4.992;2022-09-12T01:54:12;16.50;88.40
68217;DHT22;55037;52.354;4.992;2022-09-12T01:56:46;16.50;88.60
68217;DHT22;55037;52.354;4.992;2022-09-12T01:59:25;16.50;88.70
68217;DHT22;55037;52.354;4.992;2022-09-12T02:02:05;16.60;88.80
68217;DHT22;55037;52.354;4.992;2022-09-12T02:04:40;16.60;88.60
68217;DHT22;55037;52.354;4.992;2022-09-12T02:07:26;16.60;88.50
68217;DHT22;55037;52.354;4.992;2022-09-12T02:13:04;16.60;88.50
68217;DHT22;55037;52.354;4.992;2022-09-12T02:15:40;16.60;88.40
68217;DHT22;55037;52.354;4.992;2022-09-12T02:18:12;16.60;88.50
68217;DHT22;55037;52.354;4.992;2022-09-12T02:20:41;16.60;88.40
68217;DHT22;55037;52.354;4.992;2022-09-12T02:23:20;16.70;88.50
68217;DHT22;55037;52.354;4.992;2022-09-12T02:25:52;16.70;88.40
68217;DHT22;55037;52.354;4.992;2022-09-12T02:28:25;16.70;88.10
68217;DHT22;55037;52.354;4.992;2022-09-12T02:31:11;16.60;87.90
68217;DHT22;55037;52.354;4.992;2022-09-12T02:36:14;16.60;87.70
68217;DHT22;55037;52.354;4.992;2022-09-12T02:38:50;16.60;87.70
68217;DHT22;55037;52.354;4.992;2022-09-12T02:41:21;16.60;87.70
68217;DHT22;55037;52.354;4.992;2022-09-12T02:43:50;16.60;87.60
68217;DHT22;55037;52.354;4.992;2022-09-12T02:46:30;16.60;87.60
68217;DHT22;55037;52.354;4.992;2022-09-12T02:48:58;16.60;87.80
68217;DHT22;55037;52.354;4.992;2022-09-12T02:51:26;16.60;87.80
68217;DHT22;55037;52.354;4.992;2022-09-12T02:53:53;16.60;88.00
68217;DHT22;55037;52.354;4.992;2022-09-12T02:56:25;16.50;88.00
68217;DHT22;55037;52.354;4.992;2022-09-12T02:58:54;16.60;88.20
68217;DHT22;55037;52.354;4.992;2022-09-12T03:04:35;16.50;88.40
68217;DHT22;55037;52.354;4.992;2022-09-12T03:07:23;16.60;88.50
68217;DHT22;55037;52.354;4.992;2022-09-12T03:10:18;16.60;88.60
68217;DHT22;55037;52.354;4.992;2022-09-12T03:15:39;16.50;88.20
68217;DHT22;55037;52.354;4.992;2022-09-12T03:24:10;16.40;88.00
68217;DHT22;55037;52.354;4.992;2022-09-12T03:26:41;16.40;88.20
68217;DHT22;55037;52.354;4.992;2022-09-12T03:29:10;16.40;88.20
68217;DHT22;55037;52.354;4.992;2022-09-12T03:31:47;16.40;88.50
68217;DHT22;55037;52.354;4.992;2022-09-12T03:34:14;16.40;88.70
68217;DHT22;55037;52.354;4.992;2022-09-12T03:36:42;16.40;88.60
68217;DHT22;55037;52.354;4.992;2022-09-12T03:39:09;16.40;88.50
68217;DHT22;55037;52.354;4.992;2022-09-12T03:41:36;16.40;88.60
68217;DHT22;55037;52.354;4.992;2022-09-12T03:44:03;16.40;88.50
68217;DHT22;55037;52.354;4.992;2022-09-12T03:46:31;16.50;88.50
68217;DHT22;55037;52.354;4.992;2022-09-12T03:48:58;16.50;87.40
68217;DHT22;55037;52.354;4.992;2022-09-12T03:51:26;16.50;88.10
68217;DHT22;55037;52.354;4.992;2022-09-12T03:53:53;16.60;88.10
68217;DHT22;55037;52.354;4.992;2022-09-12T03:56:20;16.60;88.00
68217;DHT22;55037;52.354;4.992;2022-09-12T03:58:47;16.60;87.90
68217;DHT22;55037;52.354;4.992;2022-09-12T04:01:17;16.60;87.90
68217;DHT22;55037;52.354;4.992;2022-09-12T04:03:47;16.50;87.80
68217;DHT22;55037;52.354;4.992;2022-09-12T04:06:18;16.50;87.70
68217;DHT22;55037;52.354;4.992;2022-09-12T04:08:51;16.60;87.80
68217;DHT22;55037;52.354;4.992;2022-09-12T04:11:20;16.50;87.80
68217;DHT22;55037;52.354;4.992;2022-09-12T04:13:48;16.50;87.90
68217;DHT22;55037;52.354;4.992;2022-09-12T04:16:16;16.50;87.90
68217;DHT22;55037;52.354;4.992;2022-09-12T04:18:46;16.50;87.80
68217;DHT22;55037;52.354;4.992;2022-09-12T04:21:16;16.50;87.70
68217;DHT22;55037;52.354;4.992;2022-09-12T04:23:44;16.60;87.60
68217;DHT22;55037;52.354;4.992;2022-09-12T04:26:11;16.60;87.50
68217;DHT22;55037;52.354;4.992;2022-09-12T04:28:40;16.70;87.40
68217;DHT22;55037;52.354;4.992;2022-09-12T04:31:13;16.60;87.20
68217;DHT22;55037;52.354;4.992;2022-09-12T04:33:42;16.70;87.20
68217;DHT22;55037;52.354;4.992;2022-09-12T04:36:14;16.70;87.10
68217;DHT22;55037;52.354;4.992;2022-09-12T04:38:43;16.70;87.10
68217;DHT22;55037;52.354;4.992;2022-09-12T04:41:17;16.70;87.10
68217;DHT22;55037;52.354;4.992;2022-09-12T04:43:45;16.70;87.20
68217;DHT22;55037;52.354;4.992;2022-09-12T04:46:14;16.70;86.90
68217;DHT22;55037;52.354;4.992;2022-09-12T04:48:43;16.70;87.00
68217;DHT22;55037;52.354;4.992;2022-09-12T04:51:16;16.70;86.90
68217;DHT22;55037;52.354;4.992;2022-09-12T04:53:47;16.70;87.00
68217;DHT22;55037;52.354;4.992;2022-09-12T04:56:15;16.70;87.10
68217;DHT22;55037;52.354;4.992;2022-09-12T04:58:42;16.70;86.50
68217;DHT22;55037;52.354;4.992;2022-09-12T05:01:15;16.60;87.20
68217;DHT22;55037;52.354;4.992;2022-09-12T05:03:44;16.60;87.20
68217;DHT22;55037;52.354;4.992;2022-09-12T05:06:14;16.60;87.30
68217;DHT22;55037;52.354;4.992;2022-09-12T05:08:42;16.60;86.80
68217;DHT22;55037;52.354;4.992;2022-09-12T05:11:17;16.70;87.70
68217;DHT22;55037;52.354;4.992;2022-09-12T05:13:50;16.60;87.50
68217;DHT22;55037;52.354;4.992;2022-09-12T05:16:19;16.60;87.50
68217;DHT22;55037;52.354;4.992;2022-09-12T05:18:47;16.60;87.50
68217;DHT22;55037;52.354;4.992;2022-09-12T05:21:17;16.60;87.60
68217;DHT22;55037;52.354;4.992;2022-09-12T05:23:45;16.60;87.70
68217;DHT22;55037;52.354;4.992;2022-09-12T05:26:16;16.60;87.70
68217;DHT22;55037;52.354;4.992;2022-09-12T05:28:45;16.60;87.70
68217;DHT22;55037;52.354;4.992;2022-09-12T05:31:15;16.50;87.90
68217;DHT22;55037;52.354;4.992;2022-09-12T05:33:46;16.50;87.90
68217;DHT22;55037;52.354;4.992;2022-09-12T05:36:16;16.60;88.10
68217;DHT22;55037;52.354;4.992;2022-09-12T05:38:44;16.60;88.10
68217;DHT22;55037;52.354;4.992;2022-09-12T05:41:21;16.50;88.00
68217;DHT22;55037;52.354;4.992;2022-09-12T05:43:53;16.50;88.00
68217;DHT22;55037;52.354;4.992;2022-09-12T05:46:23;16.50;87.80
68217;DHT22;55037;52.354;4.992;2022-09-12T05:48:50;16.50;87.20
68217;DHT22;55037;52.354;4.992;2022-09-12T05:51:24;16.50;88.10
68217;DHT22;55037;52.354;4.992;2022-09-12T05:53:55;16.60;87.90
68217;DHT22;55037;52.354;4.992;2022-09-12T05:56:27;16.70;87.60
68217;DHT22;55037;52.354;4.992;2022-09-12T05:59:00;16.70;87.50
68217;DHT22;55037;52.354;4.992;2022-09-12T06:01:29;16.70;87.50
68217;DHT22;55037;52.354;4.992;2022-09-12T06:03:59;16.70;87.20
68217;DHT22;55037;52.354;4.992;2022-09-12T06:06:28;16.70;87.20
68217;DHT22;55037;52.354;4.992;2022-09-12T06:08:58;16.70;87.10
68217;DHT22;55037;52.354;4.992;2022-09-12T06:11:29;16.70;86.80
68217;DHT22;55037;52.354;4.992;2022-09-12T06:13:57;16.70;87.60
68217;DHT22;55037;52.354;4.992;2022-09-12T06:16:29;16.70;86.70
68217;DHT22;55037;52.354;4.992;2022-09-12T06:18:58;16.70;86.70
68217;DHT22;55037;52.354;4.992;2022-09-12T06:21:26;16.70;86.50
68217;DHT22;55037;52.354;4.992;2022-09-12T06:23:54;16.80;86.40
68217;DHT22;55037;52.354;4.992;2022-09-12T06:26:22;16.80;86.40
68217;DHT22;55037;52.354;4.992;2022-09-12T06:28:53;16.80;86.20
68217;DHT22;55037;52.354;4.992;2022-09-12T06:31:26;16.80;85.70
68217;DHT22;55037;52.354;4.992;2022-09-12T06:33:55;16.90;85.70
68217;DHT22;55037;52.354;4.992;2022-09-12T06:36:25;16.90;85.50
68217;DHT22;55037;52.354;4.992;2022-09-12T06:38:54;17.00;85.50
68217;DHT22;55037;52.354;4.992;2022-09-12T06:41:23;17.10;85.30
68217;DHT22;55037;52.354;4.992;2022-09-12T06:43:52;17.30;84.90
68217;DHT22;55037;52.354;4.992;2022-09-12T06:46:19;17.30;84.10
68217;DHT22;55037;52.354;4.992;2022-09-12T06:48:47;17.40;83.40
68217;DHT22;55037;52.354;4.992;2022-09-12T06:51:16;17.40;83.30
68217;DHT22;55037;52.354;4.992;2022-09-12T06:53:44;17.50;82.90
68217;DHT22;55037;52.354;4.992;2022-09-12T06:56:14;17.50;82.90
68217;DHT22;55037;52.354;4.992;2022-09-12T06:58:42;17.60;82.60
68217;DHT22;55037;52.354;4.992;2022-09-12T07:01:11;17.80;82.20
68217;DHT22;55037;52.354;4.992;2022-09-12T07:03:39;17.90;81.50
68217;DHT22;55037;52.354;4.992;2022-09-12T07:06:14;18.00;80.90
68217;DHT22;55037;52.354;4.992;2022-09-12T07:08:42;18.20;80.30
68217;DHT22;55037;52.354;4.992;2022-09-12T07:11:14;18.30;79.60
68217;DHT22;55037;52.354;4.992;2022-09-12T07:13:42;18.40;79.00
68217;DHT22;55037;52.354;4.992;2022-09-12T07:16:11;18.40;78.30
68217;DHT22;55037;52.354;4.992;2022-09-12T07:18:53;18.50;77.60
68217;DHT22;55037;52.354;4.992;2022-09-12T07:21:21;18.50;78.30
68217;DHT22;55037;52.354;4.992;2022-09-12T07:23:49;18.60;78.20
68217;DHT22;55037;52.354;4.992;2022-09-12T07:26:17;18.70;78.00
68217;DHT22;55037;52.354;4.992;2022-09-12T07:28:50;18.90;77.60
68217;DHT22;55037;52.354;4.992;2022-09-12T07:31:21;19.00;77.20
68217;DHT22;55037;52.354;4.992;2022-09-12T07:33:49;19.10;76.60
68217;DHT22;55037;52.354;4.992;2022-09-12T07:36:23;19.10;76.40
68217;DHT22;55037;52.354;4.992;2022-09-12T07:38:56;19.40;75.30
68217;DHT22;55037;52.354;4.992;2022-09-12T07:41:25;19.50;75.60
68217;DHT22;55037;52.354;4.992;2022-09-12T07:43:55;19.80;75.50
68217;DHT22;55037;52.354;4.992;2022-09-12T07:46:23;20.00;74.70
68217;DHT22;55037;52.354;4.992;2022-09-12T07:48:52;20.30;72.60
68217;DHT22;55037;52.354;4.992;2022-09-12T07:51:20;20.40;73.10
68217;DHT22;55037;52.354;4.992;2022-09-12T07:53:48;20.60;72.00
68217;DHT22;55037;52.354;4.992;2022-09-12T07:56:16;20.70;71.40
68217;DHT22;55037;52.354;4.992;2022-09-12T07:58:43;20.90;69.50
68217;DHT22;55037;52.354;4.992;2022-09-12T08:01:19;20.90;69.50
68217;DHT22;55037;52.354;4.992;2022-09-12T08:03:48;21.00;69.10
68217;DHT22;55037;52.354;4.992;2022-09-12T08:06:18;21.00;68.20
68217;DHT22;55037;52.354;4.992;2022-09-12T08:08:51;21.10;68.00
68217;DHT22;55037;52.354;4.992;2022-09-12T08:11:21;21.10;67.80
68217;DHT22;55037;52.354;4.992;2022-09-12T08:13:48;21.10;67.10
68217;DHT22;55037;52.354;4.992;2022-09-12T08:16:24;21.20;67.60
68217;DHT22;55037;52.354;4.992;2022-09-12T08:18:52;21.30;67.90
68217;DHT22;55037;52.354;4.992;2022-09-12T08:21:24;21.30;66.70
68217;DHT22;55037;52.354;4.992;2022-09-12T08:23:54;21.70;66.70
68217;DHT22;55037;52.354;4.992;2022-09-12T08:26:21;22.00;65.40
68217;DHT22;55037;52.354;4.992;2022-09-12T08:28:49;22.20;64.80
68217;DHT22;55037;52.354;4.992;2022-09-12T08:31:18;22.50;63.80
68217;DHT22;55037;52.354;4.992;2022-09-12T08:33:46;22.80;62.20
68217;DHT22;55037;52.354;4.992;2022-09-12T08:36:16;22.90;61.30
68217;DHT22;55037;52.354;4.992;2022-09-12T08:38:45;23.10;61.40
68217;DHT22;55037;52.354;4.992;2022-09-12T08:41:27;23.60;60.70
68217;DHT22;55037;52.354;4.992;2022-09-12T08:46:49;26.80;48.90
68217;DHT22;55037;52.354;4.992;2022-09-12T08:49:29;28.70;43.40
68217;DHT22;55037;52.354;4.992;2022-09-12T08:52:06;31.00;37.50
68217;DHT22;55037;52.354;4.992;2022-09-12T08:54:36;32.30;32.50
68217;DHT22;55037;52.354;4.992;2022-09-12T08:57:07;32.80;30.60
68217;DHT22;55037;52.354;4.992;2022-09-12T08:59:40;33.00;29.50
68217;DHT22;55037;52.354;4.992;2022-09-12T09:05:44;33.50;28.20
68217;DHT22;55037;52.354;4.992;2022-09-12T09:08:36;33.80;27.40
68217;DHT22;55037;52.354;4.992;2022-09-12T09:16:56;33.00;28.40
68217;DHT22;55037;52.354;4.992;2022-09-12T09:20:00;31.90;29.90
68217;DHT22;55037;52.354;4.992;2022-09-12T09:22:30;30.70;31.90
68217;DHT22;55037;52.354;4.992;2022-09-12T09:25:04;29.50;34.90
68217;DHT22;55037;52.354;4.992;2022-09-12T09:27:59;28.70;36.80
68217;DHT22;55037;52.354;4.992;2022-09-12T09:30:28;28.10;37.90
68217;DHT22;55037;52.354;4.992;2022-09-12T09:32:59;28.10;38.20
68217;DHT22;55037;52.354;4.992;2022-09-12T09:35:44;28.80;37.70
68217;DHT22;55037;52.354;4.992;2022-09-12T09:38:23;30.60;33.60
68217;DHT22;55037;52.354;4.992;2022-09-12T09:43:40;33.60;28.10
68217;DHT22;55037;52.354;4.992;2022-09-12T09:46:07;35.10;26.50
68217;DHT22;55037;52.354;4.992;2022-09-12T09:48:36;36.40;24.90
68217;DHT22;55037;52.354;4.992;2022-09-12T09:51:06;37.80;23.60
68217;DHT22;55037;52.354;4.992;2022-09-12T09:53:51;38.80;22.20
68217;DHT22;55037;52.354;4.992;2022-09-12T09:58:52;38.40;21.80
68217;DHT22;55037;52.354;4.992;2022-09-12T10:01:20;38.10;22.40
68217;DHT22;55037;52.354;4.992;2022-09-12T10:03:52;38.50;22.40
68217;DHT22;55037;52.354;4.992;2022-09-12T10:08:48;39.20;20.70
68217;DHT22;55037;52.354;4.992;2022-09-12T10:13:53;38.10;21.70
68217;DHT22;55037;52.354;4.992;2022-09-12T10:16:22;37.70;21.90
68217;DHT22;55037;52.354;4.992;2022-09-12T10:18:51;37.50;22.50
68217;DHT22;55037;52.354;4.992;2022-09-12T10:24:21;38.40;21.40
68217;DHT22;55037;52.354;4.992;2022-09-12T10:26:53;38.90;20.60
68217;DHT22;55037;52.354;4.992;2022-09-12T10:29:28;38.50;21.20
68217;DHT22;55037;52.354;4.992;2022-09-12T10:32:00;38.60;20.80
68217;DHT22;55037;52.354;4.992;2022-09-12T10:34:33;38.90;20.70
68217;DHT22;55037;52.354;4.992;2022-09-12T10:37:07;39.70;20.30
68217;DHT22;55037;52.354;4.992;2022-09-12T10:39:36;41.40;19.70
68217;DHT22;55037;52.354;4.992;2022-09-12T10:42:04;41.80;18.00
68217;DHT22;55037;52.354;4.992;2022-09-12T10:44:33;41.90;18.30
68217;DHT22;55037;52.354;4.992;2022-09-12T10:47:20;41.60;18.10
68217;DHT22;55037;52.354;4.992;2022-09-12T10:49:47;40.70;19.00
68217;DHT22;55037;52.354;4.992;2022-09-12T10:52:22;39.80;19.60
68217;DHT22;55037;52.354;4.992;2022-09-12T10:54:50;38.10;21.10
68217;DHT22;55037;52.354;4.992;2022-09-12T11:00:35;34.40;24.80
68217;DHT22;55037;52.354;4.992;2022-09-12T11:03:15;33.00;27.50
68217;DHT22;55037;52.354;4.992;2022-09-12T11:06:04;35.00;25.40
68217;DHT22;55037;52.354;4.992;2022-09-12T11:14:44;40.50;19.20
68217;DHT22;55037;52.354;4.992;2022-09-12T11:20:09;39.20;20.40
68217;DHT22;55037;52.354;4.992;2022-09-12T11:25:39;39.10;20.00
68217;DHT22;55037;52.354;4.992;2022-09-12T11:28:27;39.00;20.30
68217;DHT22;55037;52.354;4.992;2022-09-12T11:34:01;40.50;19.60
68217;DHT22;55037;52.354;4.992;2022-09-12T11:39:15;42.00;17.50
68217;DHT22;55037;52.354;4.992;2022-09-12T11:41:44;40.90;17.80
68217;DHT22;55037;52.354;4.992;2022-09-12T11:44:21;40.00;19.90
68217;DHT22;55037;52.354;4.992;2022-09-12T11:46:49;39.50;19.50
68217;DHT22;55037;52.354;4.992;2022-09-12T11:49:24;39.80;19.40
68217;DHT22;55037;52.354;4.992;2022-09-12T11:52:20;40.00;19.30
68217;DHT22;55037;52.354;4.992;2022-09-12T11:57:28;39.50;19.70
68217;DHT22;55037;52.354;4.992;2022-09-12T12:00:15;39.40;19.90
68217;DHT22;55037;52.354;4.992;2022-09-12T12:05:45;40.30;18.50
68217;DHT22;55037;52.354;4.992;2022-09-12T12:08:22;39.60;18.90
68217;DHT22;55037;52.354;4.992;2022-09-12T12:10:53;39.70;19.10
68217;DHT22;55037;52.354;4.992;2022-09-12T12:13:35;40.30;18.50
68217;DHT22;55037;52.354;4.992;2022-09-12T12:18:37;39.60;18.90
68217;DHT22;55037;52.354;4.992;2022-09-12T12:32:18;39.80;18.60
68217;DHT22;55037;52.354;4.992;2022-09-12T12:34:46;40.40;18.20
68217;DHT22;55037;52.354;4.992;2022-09-12T12:44:57;40.20;18.60
68217;DHT22;55037;52.354;4.992;2022-09-12T12:50:11;41.00;17.10
68217;DHT22;55037;52.354;4.992;2022-09-12T12:52:58;40.20;18.00
68217;DHT22;55037;52.354;4.992;2022-09-12T12:58:18;38.30;19.80
68217;DHT22;55037;52.354;4.992;2022-09-12T13:01:03;38.10;20.00
68217;DHT22;55037;52.354;4.992;2022-09-12T13:03:32;38.70;19.60
68217;DHT22;55037;52.354;4.992;2022-09-12T13:06:03;39.50;19.10
68217;DHT22;55037;52.354;4.992;2022-09-12T13:08:35;39.50;19.00
68217;DHT22;55037;52.354;4.992;2022-09-12T13:11:13;38.30;19.50
68217;DHT22;55037;52.354;4.992;2022-09-12T13:13:55;37.70;20.50
68217;DHT22;55037;52.354;4.992;2022-09-12T13:16:34;38.10;20.00
68217;DHT22;55037;52.354;4.992;2022-09-12T13:19:06;37.30;20.50
68217;DHT22;55037;52.354;4.992;2022-09-12T13:21:34;37.30;20.90
68217;DHT22;55037;52.354;4.992;2022-09-12T13:24:12;37.30;20.90
68217;DHT22;55037;52.354;4.992;2022-09-12T13:26:42;37.00;20.90
68217;DHT22;55037;52.354;4.992;2022-09-12T13:29:13;36.30;21.60
68217;DHT22;55037;52.354;4.992;2022-09-12T13:31:42;35.80;22.50
68217;DHT22;55037;52.354;4.992;2022-09-12T13:34:24;35.40;22.60
68217;DHT22;55037;52.354;4.992;2022-09-12T13:37:11;34.60;23.00
68217;DHT22;55037;52.354;4.992;2022-09-12T13:39:54;33.80;24.10
68217;DHT22;55037;52.354;4.992;2022-09-12T13:42:46;33.60;24.50
68217;DHT22;55037;52.354;4.992;2022-09-12T13:45:25;33.00;23.90
68217;DHT22;55037;52.354;4.992;2022-09-12T13:47:59;34.40;24.10
68217;DHT22;55037;52.354;4.992;2022-09-12T13:50:36;34.90;24.00
68217;DHT22;55037;52.354;4.992;2022-09-12T13:53:10;34.80;23.30
68217;DHT22;55037;52.354;4.992;2022-09-12T13:55:41;34.30;23.50
68217;DHT22;55037;52.354;4.992;2022-09-12T14:00:59;33.50;24.60
68217;DHT22;55037;52.354;4.992;2022-09-12T14:03:29;33.50;25.10
68217;DHT22;55037;52.354;4.992;2022-09-12T14:06:16;33.90;24.30
68217;DHT22;55037;52.354;4.992;2022-09-12T14:08:46;34.00;23.50
68217;DHT22;55037;52.354;4.992;2022-09-12T14:11:23;33.00;24.40
68217;DHT22;55037;52.354;4.992;2022-09-12T14:13:52;32.40;26.00
68217;DHT22;55037;52.354;4.992;2022-09-12T14:16:19;32.50;26.10
68217;DHT22;55037;52.354;4.992;2022-09-12T14:18:49;32.10;26.30
68217;DHT22;55037;52.354;4.992;2022-09-12T14:21:35;32.00;26.60
68217;DHT22;55037;52.354;4.992;2022-09-12T14:24:04;32.30;26.00
68217;DHT22;55037;52.354;4.992;2022-09-12T14:26:34;32.30;26.10
68217;DHT22;55037;52.354;4.992;2022-09-12T14:29:06;32.60;26.20
68217;DHT22;55037;52.354;4.992;2022-09-12T14:31:36;32.90;25.80
68217;DHT22;55037;52.354;4.992;2022-09-12T14:34:17;33.20;25.50
68217;DHT22;55037;52.354;4.992;2022-09-12T14:36:50;33.40;25.50
68217;DHT22;55037;52.354;4.992;2022-09-12T14:39:38;33.50;24.70
68217;DHT22;55037;52.354;4.992;2022-09-12T14:42:13;33.00;24.50
68217;DHT22;55037;52.354;4.992;2022-09-12T14:44:54;32.10;26.40
68217;DHT22;55037;52.354;4.992;2022-09-12T14:47:24;31.90;26.20
68217;DHT22;55037;52.354;4.992;2022-09-12T14:49:52;31.70;26.50
68217;DHT22;55037;52.354;4.992;2022-09-12T14:52:33;31.90;26.50
68217;DHT22;55037;52.354;4.992;2022-09-12T14:55:02;32.10;26.00
68217;DHT22;55037;52.354;4.992;2022-09-12T14:57:35;32.40;25.70
68217;DHT22;55037;52.354;4.992;2022-09-12T15:02:42;32.20;26.00
68217;DHT22;55037;52.354;4.992;2022-09-12T15:07:41;31.80;26.30
68217;DHT22;55037;52.354;4.992;2022-09-12T15:10:25;31.80;26.70
68217;DHT22;55037;52.354;4.992;2022-09-12T15:15:36;31.30;26.80
68217;DHT22;55037;52.354;4.992;2022-09-12T15:18:04;30.70;27.30
68217;DHT22;55037;52.354;4.992;2022-09-12T15:20:36;30.30;28.20
68217;DHT22;55037;52.354;4.992;2022-09-12T15:23:06;30.00;28.50
68217;DHT22;55037;52.354;4.992;2022-09-12T15:25:37;30.20;28.70
68217;DHT22;55037;52.354;4.992;2022-09-12T15:28:21;30.30;28.20
68217;DHT22;55037;52.354;4.992;2022-09-12T15:30:51;30.10;28.20
68217;DHT22;55037;52.354;4.992;2022-09-12T15:33:20;29.50;28.80
68217;DHT22;55037;52.354;4.992;2022-09-12T15:35:49;29.20;29.60
68217;DHT22;55037;52.354;4.992;2022-09-12T15:38:17;29.20;30.00
68217;DHT22;55037;52.354;4.992;2022-09-12T15:40:51;29.30;30.10
68217;DHT22;55037;52.354;4.992;2022-09-12T15:43:22;29.70;29.20
68217;DHT22;55037;52.354;4.992;2022-09-12T15:45:49;29.90;28.70
68217;DHT22;55037;52.354;4.992;2022-09-12T15:48:18;30.00;29.00
68217;DHT22;55037;52.354;4.992;2022-09-12T15:50:47;30.30;28.30
68217;DHT22;55037;52.354;4.992;2022-09-12T15:53:15;30.40;28.20
68217;DHT22;55037;52.354;4.992;2022-09-12T15:55:43;30.40;28.00
68217;DHT22;55037;52.354;4.992;2022-09-12T15:58:11;30.40;27.80
68217;DHT22;55037;52.354;4.992;2022-09-12T16:00:38;30.30;27.70
68217;DHT22;55037;52.354;4.992;2022-09-12T16:03:05;30.00;28.00
68217;DHT22;55037;52.354;4.992;2022-09-12T16:05:33;29.90;28.80
68217;DHT22;55037;52.354;4.992;2022-09-12T16:08:00;29.60;29.60
68217;DHT22;55037;52.354;4.992;2022-09-12T16:10:28;28.90;29.50
68217;DHT22;55037;52.354;4.992;2022-09-12T16:12:56;28.10;31.00
68217;DHT22;55037;52.354;4.992;2022-09-12T16:15:24;27.40;33.00
68217;DHT22;55037;52.354;4.992;2022-09-12T16:17:51;27.00;34.20
68217;DHT22;55037;52.354;4.992;2022-09-12T16:20:20;26.70;35.20
68217;DHT22;55037;52.354;4.992;2022-09-12T16:22:48;26.50;35.60
68217;DHT22;55037;52.354;4.992;2022-09-12T16:25:15;26.50;35.80
68217;DHT22;55037;52.354;4.992;2022-09-12T16:27:43;26.50;35.70
68217;DHT22;55037;52.354;4.992;2022-09-12T16:30:11;26.70;36.00
68217;DHT22;55037;52.354;4.992;2022-09-12T16:32:39;26.60;35.30
68217;DHT22;55037;52.354;4.992;2022-09-12T16:35:07;26.50;35.90
68217;DHT22;55037;52.354;4.992;2022-09-12T16:37:34;26.60;36.40
68217;DHT22;55037;52.354;4.992;2022-09-12T16:40:03;26.80;36.30
68217;DHT22;55037;52.354;4.992;2022-09-12T16:42:31;27.20;35.40
68217;DHT22;55037;52.354;4.992;2022-09-12T16:44:58;27.40;35.00
68217;DHT22;55037;52.354;4.992;2022-09-12T16:47:25;27.40;34.30
68217;DHT22;55037;52.354;4.992;2022-09-12T16:49:52;27.20;34.30
68217;DHT22;55037;52.354;4.992;2022-09-12T16:52:20;26.90;34.60
68217;DHT22;55037;52.354;4.992;2022-09-12T16:54:49;26.60;35.20
68217;DHT22;55037;52.354;4.992;2022-09-12T16:57:16;26.40;35.90
68217;DHT22;55037;52.354;4.992;2022-09-12T16:59:44;26.10;36.30
68217;DHT22;55037;52.354;4.992;2022-09-12T17:02:12;25.90;36.70
68217;DHT22;55037;52.354;4.992;2022-09-12T17:04:40;25.70;37.20
68217;DHT22;55037;52.354;4.992;2022-09-12T17:07:07;25.50;37.30
68217;DHT22;55037;52.354;4.992;2022-09-12T17:09:35;25.20;36.60
68217;DHT22;55037;52.354;4.992;2022-09-12T17:12:02;25.10;38.20
68217;DHT22;55037;52.354;4.992;2022-09-12T17:14:30;25.80;39.40
68217;DHT22;55037;52.354;4.992;2022-09-12T17:16:59;24.80;39.10
68217;DHT22;55037;52.354;4.992;2022-09-12T17:19:27;24.70;39.40
68217;DHT22;55037;52.354;4.992;2022-09-12T17:21:56;24.70;39.60
68217;DHT22;55037;52.354;4.992;2022-09-12T17:24:24;24.60;40.10
68217;DHT22;55037;52.354;4.992;2022-09-12T17:26:52;24.60;40.40
68217;DHT22;55037;52.354;4.992;2022-09-12T17:29:19;24.50;40.80
68217;DHT22;55037;52.354;4.992;2022-09-12T17:31:47;24.40;41.10
68217;DHT22;55037;52.354;4.992;2022-09-12T17:34:14;24.40;41.40
68217;DHT22;55037;52.354;4.992;2022-09-12T17:36:44;24.30;41.50
68217;DHT22;55037;52.354;4.992;2022-09-12T17:39:12;24.20;41.80
68217;DHT22;55037;52.354;4.992;2022-09-12T17:41:40;24.20;42.10
68217;DHT22;55037;52.354;4.992;2022-09-12T17:44:10;24.10;42.50
68217;DHT22;55037;52.354;4.992;2022-09-12T17:46:38;24.10;42.70
68217;DHT22;55037;52.354;4.992;2022-09-12T17:49:10;24.00;42.20
68217;DHT22;55037;52.354;4.992;2022-09-12T17:51:39;23.90;43.30
68217;DHT22;55037;52.354;4.992;2022-09-12T17:54:14;23.90;43.50
68217;DHT22;55037;52.354;4.992;2022-09-12T17:56:43;23.80;43.70
68217;DHT22;55037;52.354;4.992;2022-09-12T17:59:18;23.70;44.00
68217;DHT22;55037;52.354;4.992;2022-09-12T18:01:45;23.70;45.50
68217;DHT22;55037;52.354;4.992;2022-09-12T18:04:31;23.60;44.90